Time;durP1;ratioP1;P1;durP2;ratioP2;P2;SDS_P1;SDS_P2;PMS_P1;PMS_P2;Temp;Humidity;BMP_temperature;BMP_pressure;BME280_temperature;BME280_humidity;BME280_pressure;Samples;Min_cycle;Max_cycle;Signal;HPM_P1;HPM_P2
2022/08/19 00:01:22;;;;;;;7.25;4.45;;;22.10;72.10;;;;;;5036907;28;20018;-67
2022/08/19 00:03:48;;;;;;;8.70;4.95;;;22.10;72.10;;;;;;5028461;28;20038;-67
2022/08/19 00:06:14;;;;;;;6.57;4.28;;;22.10;72.10;;;;;;5026972;28;20095;-67
2022/08/19 00:08:40;;;;;;;6.95;4.50;;;22.10;72.20;;;;;;5038002;28;20557;-67
2022/08/19 00:11:07;;;;;;;7.65;4.75;;;22.10;72.20;;;;;;5032015;28;20168;-67
2022/08/19 00:13:33;;;;;;;6.88;4.43;;;22.10;72.20;;;;;;5031239;28;20046;-67
2022/08/19 00:15:59;;;;;;;6.88;4.45;;;22.10;72.30;;;;;;5017612;28;20018;-67
2022/08/19 00:18:25;;;;;;;7.60;4.70;;;22.00;72.20;;;;;;5035668;28;20018;-67
2022/08/19 00:20:51;;;;;;;7.63;4.90;;;22.00;72.30;;;;;;5032529;28;20121;-67
2022/08/19 00:23:17;;;;;;;8.48;5.18;;;22.00;72.30;;;;;;5011760;28;20433;-67
2022/08/19 00:25:42;;;;;;;9.00;5.25;;;22.00;72.40;;;;;;5011958;28;20518;-67
2022/08/19 00:28:08;;;;;;;7.35;5.00;;;22.00;72.40;;;;;;5020051;28;20040;-67
2022/08/19 00:30:34;;;;;;;7.63;4.85;;;22.00;72.50;;;;;;5020917;28;20029;-67
2022/08/19 00:32:59;;;;;;;10.00;5.03;;;22.00;72.60;;;;;;5027405;28;20040;-67
2022/08/19 00:35:27;;;;;;;8.18;5.10;;;21.90;72.60;;;;;;5018773;28;20627;-67
2022/08/19 00:37:53;;;;;;;10.10;5.60;;;21.90;72.60;;;;;;5035741;28;20091;-67
2022/08/19 00:40:19;;;;;;;8.80;5.30;;;21.90;72.70;;;;;;5025321;28;20420;-67
2022/08/19 00:42:45;;;;;;;8.82;5.55;;;21.90;72.80;;;;;;5036697;28;20044;-67
2022/08/19 00:45:14;;;;;;;8.32;5.80;;;21.80;72.80;;;;;;5014555;28;20022;-67
2022/08/19 00:47:40;;;;;;;8.38;5.80;;;21.80;72.80;;;;;;5033462;28;20037;-67
2022/08/19 00:50:08;;;;;;;8.68;5.70;;;21.80;72.80;;;;;;5029387;28;20425;-67
2022/08/19 00:52:37;;;;;;;9.85;5.72;;;21.80;72.90;;;;;;5032230;28;20026;-67
2022/08/19 00:55:07;;;;;;;8.57;5.85;;;21.80;73.00;;;;;;5020008;28;20025;-67
2022/08/19 00:57:39;;;;;;;9.02;6.10;;;21.80;73.00;;;;;;5023757;28;20018;-67
2022/08/19 01:00:12;;;;;;;9.80;6.40;;;21.70;73.00;;;;;;5026078;28;20089;-67
2022/08/19 01:02:39;;;;;;;10.15;6.55;;;21.70;73.10;;;;;;5027787;28;20430;-66
2022/08/19 01:05:11;;;;;;;8.45;5.82;;;21.70;73.10;;;;;;5023111;28;20058;-66
2022/08/19 01:07:40;;;;;;;8.65;5.90;;;21.70;73.20;;;;;;5031060;28;20044;-67
2022/08/19 01:10:08;;;;;;;8.63;6.25;;;21.70;73.20;;;;;;5030055;28;20164;-67
2022/08/19 01:12:34;;;;;;;8.98;6.35;;;21.60;73.20;;;;;;5010218;28;20080;-67
2022/08/19 01:15:00;;;;;;;8.23;6.20;;;21.60;73.20;;;;;;5021554;28;20118;-67
2022/08/19 01:17:25;;;;;;;8.13;5.95;;;21.70;73.20;;;;;;5026712;28;20029;-66
2022/08/19 01:19:51;;;;;;;8.43;6.40;;;21.60;73.20;;;;;;5022450;28;20026;-66
2022/08/19 01:22:23;;;;;;;8.80;6.88;;;21.60;73.20;;;;;;5013982;28;20204;-67
2022/08/19 01:24:50;;;;;;;9.25;5.95;;;21.60;73.20;;;;;;5027502;28;20112;-65
2022/08/19 01:27:16;;;;;;;8.90;6.45;;;21.60;73.20;;;;;;5018333;28;20030;-67
2022/08/19 01:29:44;;;;;;;9.93;6.80;;;21.60;73.20;;;;;;5016459;28;20026;-68
2022/08/19 01:32:13;;;;;;;10.77;6.47;;;21.60;73.20;;;;;;5015162;28;20065;-67
2022/08/19 01:34:39;;;;;;;9.02;6.63;;;21.50;73.20;;;;;;5016590;28;20033;-67
2022/08/19 01:37:10;;;;;;;8.75;6.30;;;21.50;73.30;;;;;;5019742;28;20117;-65
2022/08/19 01:39:39;;;;;;;8.75;6.38;;;21.50;74.00;;;;;;5030853;28;20065;-64
2022/08/19 01:42:07;;;;;;;10.18;6.90;;;21.60;73.30;;;;;;5008619;28;20061;-65
2022/08/19 01:44:33;;;;;;;9.68;6.95;;;21.50;73.20;;;;;;5025534;28;20036;-65
2022/08/19 01:46:59;;;;;;;10.07;7.25;;;21.50;73.20;;;;;;5003435;28;20039;-65
2022/08/19 01:49:26;;;;;;;9.13;6.80;;;21.60;73.20;;;;;;5020995;28;20140;-66
2022/08/19 01:51:53;;;;;;;11.80;8.20;;;21.60;73.20;;;;;;5030361;28;20091;-66
2022/08/19 01:54:20;;;;;;;9.55;7.00;;;21.50;73.10;;;;;;5030784;28;20350;-66
2022/08/19 01:56:46;;;;;;;10.32;7.32;;;21.50;73.10;;;;;;5022559;28;20462;-66
2022/08/19 01:59:16;;;;;;;9.40;7.18;;;21.50;73.00;;;;;;5034621;28;20028;-66
2022/08/19 02:01:41;;;;;;;9.02;6.82;;;21.60;73.00;;;;;;5015491;28;20069;-66
2022/08/19 02:04:07;;;;;;;10.00;7.57;;;21.60;72.90;;;;;;5030993;28;20510;-66
2022/08/19 02:06:33;;;;;;;10.00;6.68;;;21.60;72.90;;;;;;5022678;28;20052;-66
2022/08/19 02:08:59;;;;;;;10.55;7.78;;;21.60;72.90;;;;;;5024845;28;20377;-66
2022/08/19 02:11:31;;;;;;;9.77;7.00;;;21.60;72.90;;;;;;5015683;28;20029;-66
2022/08/19 02:13:57;;;;;;;9.45;6.88;;;21.60;72.80;;;;;;5025696;28;20072;-66
2022/08/19 02:16:23;;;;;;;11.07;7.38;;;21.60;72.80;;;;;;5026031;28;20457;-66
2022/08/19 02:18:49;;;;;;;10.63;8.57;;;21.60;72.70;;;;;;5010654;28;20025;-66
2022/08/19 02:21:17;;;;;;;10.88;7.70;;;21.60;72.60;;;;;;5028789;28;20304;-65
2022/08/19 02:23:43;;;;;;;9.70;7.90;;;21.70;72.60;;;;;;5006325;28;20123;-66
2022/08/19 02:26:12;;;;;;;10.27;7.10;;;21.70;72.60;;;;;;5026411;28;20099;-65
2022/08/19 02:28:38;;;;;;;10.80;6.85;;;21.60;72.50;;;;;;5020679;28;20346;-66
2022/08/19 02:31:12;;;;;;;10.02;7.43;;;21.60;72.60;;;;;;5028407;28;20065;-66
2022/08/19 02:33:38;;;;;;;10.32;7.53;;;21.60;72.60;;;;;;5016744;28;20026;-65
2022/08/19 02:36:05;;;;;;;9.02;6.63;;;21.60;72.60;;;;;;5024557;28;20064;-65
2022/08/19 02:38:32;;;;;;;10.93;7.10;;;21.60;72.60;;;;;;5018031;28;20037;-66
2022/08/19 02:41:10;;;;;;;10.85;7.60;;;21.60;72.60;;;;;;5028130;28;20049;-65
2022/08/19 02:43:36;;;;;;;10.02;7.70;;;21.60;72.50;;;;;;5015695;28;20025;-66
2022/08/19 02:46:36;;;;;;;10.57;7.82;;;21.50;73.20;;;;;;5025929;28;20447;-65
2022/08/19 02:49:05;;;;;;;12.25;7.70;;;21.50;72.40;;;;;;5020318;28;20041;-65
2022/08/19 02:51:41;;;;;;;11.27;8.18;;;21.50;72.50;;;;;;5019408;28;20034;-65
2022/08/19 02:54:09;;;;;;;9.27;7.00;;;21.50;72.60;;;;;;5005797;28;20022;-65
2022/08/19 02:56:37;;;;;;;9.45;7.53;;;21.50;72.70;;;;;;5026178;28;20443;-65
2022/08/19 02:59:07;;;;;;;10.25;7.55;;;21.40;72.70;;;;;;5022258;28;20029;-65
2022/08/19 03:01:33;;;;;;;10.50;7.93;;;21.40;72.80;;;;;;5015817;28;20034;-65
2022/08/19 03:04:02;;;;;;;11.77;8.35;;;21.30;72.80;;;;;;5006265;28;20041;-65
2022/08/19 03:06:28;;;;;;;12.40;8.20;;;21.30;72.90;;;;;;5018282;28;20421;-65
2022/08/19 03:08:55;;;;;;;11.18;7.75;;;21.30;72.90;;;;;;5028459;28;20029;-65
2022/08/19 03:11:25;;;;;;;11.85;8.43;;;21.30;73.00;;;;;;5031496;28;20470;-65
2022/08/19 03:13:51;;;;;;;10.15;8.00;;;21.20;73.00;;;;;;5005762;28;20054;-66
2022/08/19 03:16:18;;;;;;;9.95;8.20;;;21.20;73.00;;;;;;5019309;28;20029;-66
2022/08/19 03:18:44;;;;;;;10.77;7.55;;;21.20;73.10;;;;;;5030777;28;20442;-66
2022/08/19 03:21:14;;;;;;;10.75;7.55;;;21.20;73.10;;;;;;5031335;28;20131;-65
2022/08/19 03:23:40;;;;;;;10.77;8.30;;;21.20;73.20;;;;;;5019292;28;20041;-65
2022/08/19 03:26:06;;;;;;;11.07;8.52;;;21.10;73.20;;;;;;5016432;28;20370;-65
2022/08/19 03:28:32;;;;;;;11.20;8.10;;;21.10;73.20;;;;;;5021257;28;20018;-65
2022/08/19 03:31:02;;;;;;;12.13;8.48;;;21.10;73.30;;;;;;5014734;28;20182;-66
2022/08/19 03:33:29;;;;;;;12.07;8.93;;;21.10;73.30;;;;;;5026840;28;20026;-66
2022/08/19 03:36:07;;;;;;;11.32;8.27;;;21.10;73.30;;;;;;5018270;28;20029;-65
2022/08/19 03:38:33;;;;;;;13.60;8.43;;;21.10;73.30;;;;;;5017189;28;20482;-66
2022/08/19 03:41:07;;;;;;;11.75;8.52;;;21.00;73.30;;;;;;5013980;28;20062;-65
2022/08/19 03:43:35;;;;;;;10.40;7.85;;;21.00;73.40;;;;;;5018571;28;20383;-65
2022/08/19 03:46:07;;;;;;;12.02;8.38;;;20.90;73.40;;;;;;5013099;28;20443;-65
2022/08/19 03:48:34;;;;;;;10.73;7.50;;;21.00;73.50;;;;;;5001889;28;20026;-66
2022/08/19 03:51:00;;;;;;;11.27;8.98;;;20.90;73.50;;;;;;5008456;28;20420;-66
2022/08/19 03:53:27;;;;;;;11.85;8.63;;;20.90;73.50;;;;;;5016769;28;20079;-65
2022/08/19 03:55:55;;;;;;;13.18;8.43;;;20.90;73.60;;;;;;5029257;28;20114;-65
2022/08/19 03:58:22;;;;;;;10.23;8.27;;;20.90;73.60;;;;;;5025291;28;20379;-65
2022/08/19 04:00:48;;;;;;;12.27;8.80;;;20.90;73.70;;;;;;5023392;28;20022;-65
2022/08/19 04:03:13;;;;;;;11.23;9.00;;;20.90;73.70;;;;;;5024550;28;20133;-67
2022/08/19 04:05:39;;;;;;;11.43;8.43;;;20.80;73.70;;;;;;5018744;28;20033;-65
2022/08/19 04:08:05;;;;;;;12.50;8.98;;;20.80;73.70;;;;;;5030972;28;20101;-65
2022/08/19 04:10:35;;;;;;;13.20;8.95;;;20.80;73.70;;;;;;5013899;28;20096;-66
2022/08/19 04:13:01;;;;;;;12.27;9.57;;;20.80;73.80;;;;;;5026339;28;20065;-65
2022/08/19 04:15:28;;;;;;;12.23;9.02;;;20.80;73.80;;;;;;5017797;28;20061;-65
2022/08/19 04:17:54;;;;;;;11.82;9.18;;;20.80;74.00;;;;;;5019428;28;20030;-65
2022/08/19 04:20:20;;;;;;;11.70;9.10;;;20.90;74.20;;;;;;5024269;28;20040;-66
2022/08/19 04:22:45;;;;;;;11.50;9.57;;;20.80;74.20;;;;;;5028000;28;20140;-65
2022/08/19 04:25:11;;;;;;;10.27;8.25;;;20.80;74.20;;;;;;5023199;28;20076;-66
2022/08/19 04:27:37;;;;;;;11.93;9.30;;;20.80;74.30;;;;;;5027967;28;20041;-65
2022/08/19 04:30:04;;;;;;;11.23;7.93;;;20.80;74.30;;;;;;5025605;28;20366;-65
2022/08/19 04:32:31;;;;;;;13.05;9.13;;;20.80;74.40;;;;;;5018080;28;20044;-66
2022/08/19 04:34:58;;;;;;;13.23;8.77;;;20.80;74.40;;;;;;5031838;28;20409;-65
2022/08/19 04:37:26;;;;;;;13.27;8.73;;;20.70;74.40;;;;;;5036178;28;20063;-65
2022/08/19 04:42:39;;;;;;;10.80;8.30;;;20.80;74.50;;;;;;5017838;28;20041;-65
2022/08/19 04:45:07;;;;;;;11.07;8.60;;;20.70;74.40;;;;;;5020509;28;20370;-65
2022/08/19 04:47:32;;;;;;;11.45;8.32;;;20.70;74.40;;;;;;5009362;28;20148;-65
2022/08/19 04:49:58;;;;;;;10.98;8.88;;;20.70;74.40;;;;;;5018000;28;20108;-66
2022/08/19 04:52:24;;;;;;;11.93;9.05;;;20.70;74.40;;;;;;5017978;28;20022;-66
2022/08/19 04:54:49;;;;;;;11.35;9.13;;;20.70;74.40;;;;;;5006293;28;20060;-66
2022/08/19 04:57:15;;;;;;;11.88;8.77;;;20.70;74.50;;;;;;5001318;28;20362;-66
2022/08/19 04:59:40;;;;;;;11.30;9.20;;;20.70;74.40;;;;;;4997121;28;20078;-66
2022/08/19 05:02:08;;;;;;;14.00;9.60;;;20.70;74.50;;;;;;5003689;28;20018;-64
2022/08/19 05:04:34;;;;;;;11.85;9.07;;;20.70;74.50;;;;;;5007632;28;20053;-65
2022/08/19 05:07:00;;;;;;;11.23;8.90;;;20.70;74.60;;;;;;5017344;28;20030;-65
2022/08/19 05:09:26;;;;;;;13.07;8.57;;;20.70;74.60;;;;;;4998123;28;20348;-64
2022/08/19 05:11:53;;;;;;;11.43;8.88;;;20.70;74.70;;;;;;5014940;28;20046;-64
2022/08/19 05:14:20;;;;;;;12.57;9.70;;;20.70;74.80;;;;;;5011274;28;20065;-65
2022/08/19 05:16:47;;;;;;;12.43;8.80;;;20.70;74.80;;;;;;5009724;28;20017;-65
2022/08/19 05:24:42;;;;;;;12.40;9.10;;;20.70;75.10;;;;;;5029691;28;20053;-64
2022/08/19 05:27:13;;;;;;;12.63;8.98;;;20.70;75.00;;;;;;5023181;28;20088;-65
2022/08/19 05:29:39;;;;;;;10.40;8.52;;;20.70;75.10;;;;;;5013703;28;20113;-64
2022/08/19 05:32:10;;;;;;;12.82;9.32;;;20.80;75.10;;;;;;5017937;28;20116;-64
2022/08/19 05:34:37;;;;;;;12.40;9.27;;;20.80;75.10;;;;;;5031821;28;20026;-65
2022/08/19 05:37:05;;;;;;;11.75;8.80;;;20.80;75.00;;;;;;5018895;28;20029;-65
2022/08/19 05:39:33;;;;;;;12.80;10.32;;;20.90;75.10;;;;;;5021549;28;20030;-64
2022/08/19 05:42:03;;;;;;;13.30;10.55;;;20.90;75.00;;;;;;5021149;28;20049;-64
2022/08/19 05:44:31;;;;;;;14.45;11.25;;;21.00;75.00;;;;;;5027250;28;20053;-65
2022/08/19 05:47:01;;;;;;;13.25;11.25;;;21.00;75.00;;;;;;5019308;28;20030;-65
2022/08/19 05:49:28;;;;;;;15.68;12.55;;;21.10;75.10;;;;;;5017947;28;20120;-64
2022/08/19 05:51:55;;;;;;;16.35;12.90;;;21.10;75.10;;;;;;5016036;28;20030;-65
2022/08/19 05:54:22;;;;;;;15.68;13.30;;;21.20;75.20;;;;;;5003610;28;20051;-64
2022/08/19 05:56:52;;;;;;;15.30;12.38;;;21.20;75.20;;;;;;5015454;28;20019;-65
2022/08/19 05:59:21;;;;;;;15.27;12.98;;;21.30;75.30;;;;;;5026645;28;20028;-65
2022/08/19 06:01:51;;;;;;;14.75;12.90;;;21.40;75.30;;;;;;4995583;28;20057;-65
2022/08/19 06:04:19;;;;;;;15.40;11.70;;;21.40;75.20;;;;;;5016295;28;20026;-65
2022/08/19 06:06:50;;;;;;;14.70;12.13;;;21.70;75.00;;;;;;5000434;28;20729;-65
2022/08/19 06:09:15;;;;;;;15.63;12.23;;;22.10;73.90;;;;;;5022459;28;20347;-65
2022/08/19 06:11:44;;;;;;;13.93;10.77;;;22.70;72.80;;;;;;5004451;28;20041;-65
2022/08/19 06:14:18;;;;;;;13.93;11.93;;;23.30;71.20;;;;;;5025793;28;20077;-65
2022/08/19 06:16:44;;;;;;;13.60;10.63;;;23.90;69.80;;;;;;5020084;28;20030;-65
2022/08/19 06:19:13;;;;;;;13.63;12.07;;;24.20;68.80;;;;;;5031062;28;20033;-65
2022/08/19 06:21:45;;;;;;;15.07;12.65;;;24.30;68.60;;;;;;5029618;28;20025;-65
2022/08/19 06:24:14;;;;;;;14.65;12.13;;;24.20;68.80;;;;;;5016926;28;20172;-66
2022/08/19 06:26:41;;;;;;;15.60;12.70;;;24.00;69.20;;;;;;5012592;28;20355;-65
2022/08/19 06:29:09;;;;;;;15.75;13.27;;;23.80;69.50;;;;;;5006497;28;20025;-65
2022/08/19 06:31:36;;;;;;;15.02;12.73;;;23.70;69.70;;;;;;5010725;28;20463;-65
2022/08/19 06:34:05;;;;;;;15.30;12.73;;;23.60;69.90;;;;;;5013233;28;20133;-66
2022/08/19 06:36:35;;;;;;;17.10;14.10;;;23.60;70.00;;;;;;5010696;28;20095;-65
2022/08/19 06:39:06;;;;;;;17.95;14.43;;;23.50;70.00;;;;;;5013026;28;20049;-66
2022/08/19 06:41:36;;;;;;;17.33;14.10;;;23.50;70.00;;;;;;5029929;28;20030;-66
2022/08/19 06:44:01;;;;;;;17.05;14.40;;;23.60;70.00;;;;;;5014497;28;20080;-65
2022/08/19 06:46:27;;;;;;;16.60;13.65;;;23.60;69.80;;;;;;5022373;28;20460;-66
2022/08/19 06:48:54;;;;;;;17.30;14.13;;;23.70;69.70;;;;;;5020634;28;20034;-65
2022/08/19 06:51:21;;;;;;;18.58;15.13;;;23.80;69.70;;;;;;5016476;28;20037;-65
2022/08/19 06:53:49;;;;;;;22.52;15.60;;;23.70;69.70;;;;;;5013570;28;20054;-65
2022/08/19 06:56:17;;;;;;;21.90;15.98;;;23.60;69.90;;;;;;5015320;28;20023;-66
2022/08/19 06:58:46;;;;;;;26.35;18.77;;;23.50;70.20;;;;;;5020693;28;20038;-66
2022/08/19 07:01:12;;;;;;;27.77;18.92;;;23.40;70.40;;;;;;5020619;28;20021;-67
2022/08/19 07:03:39;;;;;;;27.75;21.42;;;23.30;70.70;;;;;;5001967;28;20045;-66
2022/08/19 07:06:15;;;;;;;31.90;23.67;;;23.30;70.90;;;;;;5016362;28;20451;-66
2022/08/19 07:08:42;;;;;;;31.00;21.85;;;23.20;71.00;;;;;;5011306;28;20041;-66
2022/08/19 07:11:13;;;;;;;30.58;22.52;;;23.20;71.20;;;;;;5018037;28;20021;-66
2022/08/19 07:13:43;;;;;;;37.88;24.73;;;23.20;71.30;;;;;;5016820;28;20547;-66
2022/08/19 07:16:11;;;;;;;34.30;25.25;;;23.10;71.30;;;;;;5024109;28;20030;-66
2022/08/19 07:18:40;;;;;;;42.10;27.30;;;23.00;71.30;;;;;;5022070;28;20324;-66
2022/08/19 07:21:24;;;;;;;44.65;30.40;;;22.90;71.50;;;;;;5013213;28;20022;-66
2022/08/19 07:23:51;;;;;;;46.58;29.13;;;22.80;71.80;;;;;;5016051;28;20040;-66
2022/08/19 07:26:29;;;;;;;38.67;28.58;;;22.70;72.10;;;;;;5010704;28;20382;-66
2022/08/19 07:28:56;;;;;;;40.00;27.10;;;22.60;72.30;;;;;;5021575;28;20032;-66
2022/08/19 07:31:24;;;;;;;42.30;29.75;;;22.60;72.40;;;;;;5025597;28;20083;-65
2022/08/19 07:33:58;;;;;;;39.10;27.75;;;22.60;72.60;;;;;;4998576;28;20022;-65
2022/08/19 07:36:30;;;;;;;39.72;28.45;;;22.60;72.60;;;;;;5009912;28;20033;-66
2022/08/19 07:38:56;;;;;;;38.30;26.70;;;22.60;72.50;;;;;;5012934;28;20030;-66
2022/08/19 07:41:25;;;;;;;40.40;30.02;;;22.70;72.50;;;;;;5014859;28;20025;-66
2022/08/19 07:43:52;;;;;;;42.70;28.85;;;22.70;72.20;;;;;;5013009;28;20025;-66
2022/08/19 07:46:20;;;;;;;45.83;30.30;;;22.90;71.80;;;;;;5019330;28;20030;-66
2022/08/19 07:48:47;;;;;;;43.95;30.45;;;23.20;71.30;;;;;;4994433;28;20022;-66
2022/08/19 07:51:18;;;;;;;45.85;31.85;;;23.40;70.60;;;;;;5017338;28;20040;-66
2022/08/19 07:53:45;;;;;;;43.05;31.58;;;23.40;70.30;;;;;;5011799;28;20117;-66
2022/08/19 07:56:12;;;;;;;46.42;31.90;;;23.40;70.10;;;;;;4990047;28;20022;-66
2022/08/19 07:58:41;;;;;;;48.60;35.47;;;23.50;70.00;;;;;;5017812;28;20053;-66
2022/08/19 08:01:09;;;;;;;46.28;33.38;;;23.70;69.60;;;;;;5015775;28;20029;-66
2022/08/19 08:09:20;;;;;;;48.10;34.13;;;23.80;69.10;;;;;;5014677;28;20030;-66
2022/08/19 08:11:50;;;;;;;46.63;33.53;;;23.80;69.00;;;;;;5014502;28;20403;-66
2022/08/19 08:14:26;;;;;;;44.88;33.92;;;23.90;68.80;;;;;;4988662;28;20042;-66
2022/08/19 08:16:52;;;;;;;42.80;31.75;;;24.10;69.30;;;;;;5011704;28;20367;-66
2022/08/19 08:19:21;;;;;;;40.33;31.95;;;24.30;68.10;;;;;;5013964;28;20087;-66
2022/08/19 08:21:48;;;;;;;37.97;30.77;;;24.50;67.50;;;;;;5012802;28;20026;-66
2022/08/19 08:24:13;;;;;;;39.92;32.75;;;24.70;66.90;;;;;;5000518;28;21061;-65
2022/08/19 08:26:40;;;;;;;38.42;31.77;;;24.70;66.50;;;;;;5013884;28;20061;-66
2022/08/19 08:29:10;;;;;;;41.13;32.85;;;24.70;66.30;;;;;;5012877;28;20034;-65
2022/08/19 08:31:36;;;;;;;39.70;30.83;;;24.80;66.10;;;;;;5013314;28;20117;-64
2022/08/19 08:34:03;;;;;;;37.53;31.45;;;24.90;65.70;;;;;;5015871;28;20041;-65
2022/08/19 08:36:28;;;;;;;42.88;32.22;;;25.00;65.40;;;;;;5009743;28;20104;-65
2022/08/19 08:38:56;;;;;;;33.40;28.95;;;25.20;65.10;;;;;;5008195;28;20462;-65
2022/08/19 08:41:45;;;;;;;31.10;25.98;;;25.30;64.60;;;;;;5011772;28;21293;-65
2022/08/19 08:44:22;;;;;;;25.25;22.05;;;25.60;63.70;;;;;;5007965;28;20455;-65
2022/08/19 08:46:53;;;;;;;33.17;24.95;;;25.80;62.90;;;;;;4994993;28;20085;-65
2022/08/19 08:49:27;;;;;;;31.17;24.00;;;26.00;62.30;;;;;;5010657;28;20030;-65
2022/08/19 08:52:22;;;;;;;29.80;23.98;;;26.20;61.70;;;;;;5011914;28;20072;-65
2022/08/19 08:54:51;;;;;;;26.65;22.45;;;26.40;60.90;;;;;;5007366;28;20172;-65
2022/08/19 08:57:32;;;;;;;29.45;22.67;;;26.50;60.40;;;;;;5010124;28;20045;-66
2022/08/19 09:00:03;;;;;;;29.75;22.40;;;26.60;59.80;;;;;;5010782;28;20351;-65
2022/08/19 09:02:29;;;;;;;28.58;22.45;;;26.70;59.70;;;;;;5011356;28;20033;-65
2022/08/19 09:04:54;;;;;;;26.70;20.27;;;26.80;59.40;;;;;;5009781;28;20034;-66
2022/08/19 09:07:32;;;;;;;26.55;21.13;;;26.90;59.10;;;;;;5009194;28;20434;-70
2022/08/19 09:10:21;;;;;;;24.20;20.98;;;27.00;58.50;;;;;;4995430;28;20554;-70
2022/08/19 09:13:13;;;;;;;25.50;19.17;;;27.20;58.10;;;;;;5010376;28;20121;-67
2022/08/19 09:15:44;;;;;;;23.52;19.15;;;27.30;57.80;;;;;;5008661;28;20038;-66
2022/08/19 09:18:10;;;;;;;;;;;27.40;57.70;;;;;;5010241;28;20025;-67
2022/08/19 09:20:36;;;;;;;21.60;16.58;;;27.40;57.90;;;;;;5028062;28;19913;-66
2022/08/19 09:23:03;;;;;;;25.33;18.58;;;27.60;57.60;;;;;;5011176;28;20021;-66
2022/08/19 09:25:30;;;;;;;24.98;18.85;;;27.70;57.20;;;;;;5008014;28;20033;-65
2022/08/19 09:27:57;;;;;;;23.05;18.40;;;27.80;56.80;;;;;;5011076;28;20034;-66
2022/08/19 09:30:26;;;;;;;22.85;18.13;;;27.90;56.70;;;;;;5009484;28;20036;-66
2022/08/19 09:32:52;;;;;;;23.00;17.98;;;28.00;56.50;;;;;;5009881;28;20108;-72
2022/08/19 09:35:23;;;;;;;24.80;19.85;;;28.00;56.20;;;;;;5008558;28;20113;-71
2022/08/19 09:37:49;;;;;;;25.67;19.42;;;28.00;56.20;;;;;;5011789;28;20041;-73
2022/08/19 09:40:16;;;;;;;24.90;18.00;;;27.60;56.40;;;;;;5007553;28;20037;-68
2022/08/19 09:42:43;;;;;;;24.55;18.25;;;27.40;56.80;;;;;;4995569;28;20033;-71
2022/08/19 09:45:10;;;;;;;24.33;17.98;;;27.20;57.20;;;;;;5007229;28;20211;-71
2022/08/19 09:47:37;;;;;;;25.13;20.05;;;27.20;57.40;;;;;;5012565;28;20049;-71
2022/08/19 09:50:06;;;;;;;26.05;20.35;;;27.10;57.70;;;;;;5007222;28;20038;-71
2022/08/19 09:52:33;;;;;;;23.60;18.33;;;26.80;58.00;;;;;;5006202;28;20050;-73
2022/08/19 09:54:59;;;;;;;22.98;16.75;;;26.80;58.30;;;;;;5006133;28;20028;-76
2022/08/19 09:57:24;;;;;;;24.67;18.60;;;26.90;58.10;;;;;;5009600;28;20026;-72
2022/08/19 09:59:50;;;;;;;23.48;17.38;;;27.10;57.90;;;;;;5019587;28;20025;-72
2022/08/19 10:02:16;;;;;;;24.90;16.30;;;27.20;57.50;;;;;;5024453;28;20041;-71
2022/08/19 10:07:25;;;;;;;18.33;13.88;;;27.40;56.90;;;;;;5007547;28;20034;-71
2022/08/19 10:09:51;;;;;;;22.23;15.32;;;27.40;56.70;;;;;;5010658;28;20041;-70
2022/08/19 10:12:16;;;;;;;18.50;13.77;;;27.50;56.40;;;;;;5008743;28;20107;-70
2022/08/19 10:14:42;;;;;;;18.55;13.00;;;27.60;56.10;;;;;;5009280;28;20375;-71
2022/08/19 10:17:08;;;;;;;18.92;14.50;;;27.80;55.80;;;;;;5006641;28;20029;-72
2022/08/19 10:19:35;;;;;;;19.90;13.82;;;27.90;55.60;;;;;;5008925;28;20025;-71
2022/08/19 10:22:07;;;;;;;21.27;13.88;;;28.00;55.30;;;;;;5008684;28;20935;-72
2022/08/19 10:24:34;;;;;;;20.48;13.88;;;28.20;54.90;;;;;;5007709;28;20022;-72
2022/08/19 10:27:03;;;;;;;18.98;13.38;;;28.20;54.60;;;;;;5011851;28;20437;-70
2022/08/19 10:29:30;;;;;;;19.25;13.27;;;28.20;54.50;;;;;;5008216;28;20045;-70
2022/08/19 10:31:57;;;;;;;18.55;13.45;;;28.20;54.30;;;;;;5004799;28;20030;-71
2022/08/19 10:34:23;;;;;;;17.52;12.65;;;28.30;54.10;;;;;;5011322;28;20025;-70
2022/08/19 10:36:50;;;;;;;16.77;12.25;;;28.30;54.10;;;;;;5006946;28;20030;-70
2022/08/19 10:39:15;;;;;;;17.85;12.25;;;28.40;53.90;;;;;;5008048;28;20026;-71
2022/08/19 10:41:43;;;;;;;20.33;14.88;;;28.50;53.80;;;;;;5009637;28;20095;-72
2022/08/19 10:44:11;;;;;;;17.92;12.88;;;28.50;53.70;;;;;;5009678;28;20101;-71
2022/08/19 10:46:41;;;;;;;19.23;14.20;;;28.50;53.70;;;;;;5007172;28;20088;-70
2022/08/19 10:49:09;;;;;;;18.23;14.38;;;28.60;53.40;;;;;;5008650;28;20112;-72
2022/08/19 10:54:19;;;;;;;20.35;14.45;;;28.70;53.00;;;;;;5010271;28;20030;-70
2022/08/19 10:56:51;;;;;;;18.98;13.40;;;28.60;53.00;;;;;;5013689;28;20363;-71
2022/08/19 10:59:27;;;;;;;23.00;14.55;;;28.60;53.00;;;;;;5012127;28;20355;-73
2022/08/19 11:01:54;;;;;;;16.50;12.20;;;28.60;52.90;;;;;;5005777;28;20565;-71
2022/08/19 11:04:22;;;;;;;17.85;12.32;;;28.70;52.70;;;;;;5010358;28;20099;-71
2022/08/19 11:06:48;;;;;;;19.77;13.93;;;28.80;52.60;;;;;;5009601;28;20038;-72
2022/08/19 11:09:17;;;;;;;20.75;14.48;;;28.80;52.50;;;;;;4990097;28;20044;-72
2022/08/19 11:11:43;;;;;;;18.35;13.82;;;28.80;52.40;;;;;;5005748;28;20085;-71
2022/08/19 11:14:15;;;;;;;17.77;13.05;;;28.60;52.50;;;;;;5010617;28;20138;-72
2022/08/19 11:16:42;;;;;;;17.48;13.90;;;28.60;52.60;;;;;;5011196;28;20044;-71
2022/08/19 11:19:10;;;;;;;16.40;11.15;;;28.60;52.70;;;;;;5007398;28;20089;-70
2022/08/19 11:21:42;;;;;;;15.70;12.43;;;28.70;52.70;;;;;;5013886;28;20026;-71
2022/08/19 11:24:11;;;;;;;15.32;12.45;;;28.60;52.50;;;;;;5012810;28;20493;-71
2022/08/19 11:26:38;;;;;;;17.77;12.32;;;28.70;52.40;;;;;;5011967;28;20033;-71
2022/08/19 11:29:11;;;;;;;15.60;11.07;;;28.80;52.30;;;;;;5009062;28;20029;-71
2022/08/19 11:31:38;;;;;;;15.55;11.95;;;28.80;52.30;;;;;;5016934;28;20034;-71
2022/08/19 11:34:06;;;;;;;17.58;12.55;;;28.90;52.20;;;;;;5014019;28;20021;-70
2022/08/19 11:36:33;;;;;;;14.82;10.85;;;28.90;52.10;;;;;;5012532;28;20030;-71
2022/08/19 11:39:00;;;;;;;19.13;13.05;;;28.80;52.20;;;;;;4987546;28;20089;-70
2022/08/19 11:41:27;;;;;;;16.98;11.85;;;28.50;52.30;;;;;;5006586;28;20459;-71
2022/08/19 11:43:54;;;;;;;16.00;11.65;;;28.40;52.50;;;;;;5005783;28;20550;-72
2022/08/19 11:46:25;;;;;;;15.73;11.55;;;28.40;52.30;;;;;;5006696;28;20370;-70
2022/08/19 11:48:51;;;;;;;17.58;12.20;;;28.50;52.20;;;;;;5009521;28;20475;-69
2022/08/19 11:51:21;;;;;;;15.68;11.00;;;28.60;52.10;;;;;;5010078;28;20022;-69
2022/08/19 11:53:47;;;;;;;13.50;9.55;;;28.60;51.80;;;;;;5008918;28;20033;-70
2022/08/19 11:56:13;;;;;;;15.73;11.30;;;28.70;51.90;;;;;;4990519;28;20053;-70
2022/08/19 11:58:41;;;;;;;16.23;11.35;;;28.70;51.70;;;;;;5005277;28;20474;-69
2022/08/19 12:01:08;;;;;;;16.35;11.77;;;28.70;51.70;;;;;;4990811;28;20447;-69
2022/08/19 12:03:35;;;;;;;14.07;10.30;;;28.70;51.70;;;;;;5007031;28;20029;-71
2022/08/19 12:06:10;;;;;;;17.50;12.50;;;28.70;51.90;;;;;;5006277;28;20049;-70
2022/08/19 12:08:35;;;;;;;16.63;11.23;;;28.50;52.10;;;;;;4990503;28;20038;-68
2022/08/19 12:11:01;;;;;;;15.68;11.02;;;28.40;52.40;;;;;;5006815;28;20374;-69
2022/08/19 12:13:30;;;;;;;16.85;11.30;;;28.30;52.40;;;;;;4990865;28;20076;-69
2022/08/19 12:15:55;;;;;;;13.05;10.15;;;28.30;52.40;;;;;;5006232;28;20044;-70
2022/08/19 12:18:21;;;;;;;15.55;10.52;;;28.30;52.40;;;;;;5007831;28;20021;-69
2022/08/19 12:20:47;;;;;;;14.48;10.07;;;28.30;52.50;;;;;;5004863;28;20030;-69
2022/08/19 12:23:14;;;;;;;14.50;11.00;;;28.30;52.50;;;;;;5006361;28;20033;-70
2022/08/19 12:25:51;;;;;;;15.93;11.98;;;28.30;52.60;;;;;;5006517;28;20120;-68
2022/08/19 12:28:20;;;;;;;14.57;10.40;;;28.30;52.60;;;;;;5008055;28;20026;-69
2022/08/19 12:30:47;;;;;;;14.90;10.55;;;28.40;52.80;;;;;;5005288;28;20041;-68
2022/08/19 12:33:13;;;;;;;13.45;11.40;;;28.40;52.70;;;;;;5006614;28;20073;-69
2022/08/19 12:35:46;;;;;;;13.18;10.20;;;28.40;52.70;;;;;;5008615;28;20057;-68
2022/08/19 12:38:12;;;;;;;16.60;12.10;;;28.40;52.70;;;;;;5008889;28;20029;-69
2022/08/19 12:40:39;;;;;;;17.77;12.38;;;28.40;52.70;;;;;;5009373;28;20034;-71
2022/08/19 12:43:06;;;;;;;15.30;11.02;;;28.40;52.80;;;;;;5007150;28;20155;-69
2022/08/19 12:45:34;;;;;;;18.80;11.70;;;28.40;53.00;;;;;;5010379;28;20037;-73
2022/08/19 12:47:59;;;;;;;14.98;10.40;;;28.40;53.10;;;;;;5008453;28;20029;-69
2022/08/19 12:50:25;;;;;;;17.33;12.20;;;28.40;53.20;;;;;;5010969;28;20097;-74
2022/08/19 12:52:51;;;;;;;18.55;13.25;;;28.40;53.20;;;;;;5024701;28;20088;-73
2022/08/19 12:55:18;;;;;;;17.00;12.35;;;28.40;53.20;;;;;;5009669;28;20427;-71
2022/08/19 12:57:44;;;;;;;16.20;13.18;;;28.30;53.30;;;;;;5009436;28;20343;-72